Time;durP1;ratioP1;P1;durP2;ratioP2;P2;SDS_P1;SDS_P2;PMS_P1;PMS_P2;Temp;Humidity;BMP_temperature;BMP_pressure;BME280_temperature;BME280_humidity;BME280_pressure;Samples;Min_cycle;Max_cycle;Signal;HPM_P1;HPM_P2
2023/09/09 00:00:54;;;;;;;51.67;32.20;;;;;;;19.29;100.00;101608.28;5201112;28;20037;-75
2023/09/09 00:03:25;;;;;;;50.17;30.45;;;;;;;19.27;100.00;101615.81;5202826;28;20489;-75
2023/09/09 00:05:56;;;;;;;50.35;32.53;;;;;;;19.24;100.00;101608.91;5201344;28;20497;-75
2023/09/09 00:08:26;;;;;;;56.88;33.30;;;;;;;19.21;100.00;101613.91;5202250;28;20041;-75
2023/09/09 00:10:57;;;;;;;56.85;32.42;;;;;;;19.18;100.00;101614.31;5202281;28;20026;-75
2023/09/09 00:13:27;;;;;;;51.38;32.30;;;;;;;19.15;100.00;101608.25;5164162;28;20026;-75
2023/09/09 00:15:58;;;;;;;54.88;34.83;;;;;;;19.13;100.00;101606.78;5198329;28;20075;-75
2023/09/09 00:18:28;;;;;;;54.03;33.95;;;;;;;19.15;100.00;101610.13;5199513;28;20033;-75
2023/09/09 00:21:00;;;;;;;163.20;45.20;;;;;;;19.12;100.00;101610.53;5203003;28;20031;-75
2023/09/09 00:23:31;;;;;;;141.48;44.88;;;;;;;19.07;100.00;101607.56;5203877;28;20033;-75
2023/09/09 00:26:01;;;;;;;258.20;40.00;;;;;;;18.99;100.00;101608.63;5201694;28;20431;-75
2023/09/09 00:28:32;;;;;;;222.30;36.03;;;;;;;18.91;100.00;101606.06;5203356;28;20048;-75
2023/09/09 00:31:03;;;;;;;161.30;25.60;;;;;;;18.82;100.00;101602.66;5202532;28;20079;-75
2023/09/09 00:33:33;;;;;;;116.05;26.15;;;;;;;18.74;100.00;101599.31;5195141;28;20417;-75
2023/09/09 00:36:04;;;;;;;93.30;32.63;;;;;;;18.72;100.00;101601.38;5199244;28;20025;-75
2023/09/09 00:38:35;;;;;;;96.13;32.17;;;;;;;18.70;100.00;101598.88;5204171;28;20036;-75
2023/09/09 00:41:14;;;;;;;179.35;34.67;;;;;;;18.68;100.00;101600.09;5203340;28;20025;-75
2023/09/09 00:43:45;;;;;;;40.22;27.67;;;;;;;18.63;100.00;101606.13;5179313;28;20054;-75
2023/09/09 00:46:16;;;;;;;40.85;26.30;;;;;;;18.61;100.00;101598.16;5204293;28;20049;-75
2023/09/09 00:48:47;;;;;;;39.33;25.30;;;;;;;18.64;100.00;101599.63;5196729;28;20018;-75
2023/09/09 00:51:18;;;;;;;36.33;25.40;;;;;;;18.64;100.00;101592.31;5203775;28;20055;-75
2023/09/09 00:53:49;;;;;;;35.60;24.63;;;;;;;18.64;100.00;101592.31;5202484;28;20029;-75
2023/09/09 00:56:19;;;;;;;28.23;21.17;;;;;;;18.63;100.00;101592.53;5204037;28;20017;-75
2023/09/09 00:58:50;;;;;;;32.33;23.90;;;;;;;18.63;100.00;101593.38;5196870;28;20129;-75
2023/09/09 01:01:20;;;;;;;35.60;24.90;;;;;;;18.61;100.00;101590.00;5181748;28;20511;-75
2023/09/09 01:03:53;;;;;;;34.88;26.70;;;;;;;18.58;100.00;101595.00;5202069;28;20030;-75
2023/09/09 01:06:24;;;;;;;28.88;23.40;;;;;;;18.57;100.00;101593.31;5201882;28;20475;-75
2023/09/09 01:09:06;;;;;;;42.42;28.40;;;;;;;18.55;100.00;101595.41;5201429;28;20072;-75
2023/09/09 01:11:38;;;;;;;42.28;28.00;;;;;;;18.52;100.00;101598.50;5189787;28;20265;-75
2023/09/09 01:14:09;;;;;;;47.63;28.05;;;;;;;18.47;100.00;101595.56;5207047;28;20025;-75
2023/09/09 01:16:41;;;;;;;43.90;30.13;;;;;;;18.43;100.00;101599.75;5200905;28;20053;-75
2023/09/09 01:19:16;;;;;;;45.75;29.52;;;;;;;18.41;100.00;101599.91;5199119;28;20491;-75
2023/09/09 01:21:48;;;;;;;44.28;28.75;;;;;;;18.37;100.00;101595.91;5205190;28;20545;-75
2023/09/09 01:24:19;;;;;;;40.85;27.85;;;;;;;18.32;100.00;101588.41;5200337;28;20010;-75
2023/09/09 01:26:50;;;;;;;55.53;33.33;;;;;;;18.29;100.00;101598.81;5206284;28;20085;-76
2023/09/09 01:29:22;;;;;;;63.85;36.80;;;;;;;18.26;100.00;101602.75;5185244;28;20018;-75
2023/09/09 01:31:52;;;;;;;67.80;39.22;;;;;;;18.24;100.00;101602.13;5205201;28;20021;-75
2023/09/09 01:34:23;;;;;;;68.63;40.30;;;;;;;18.21;100.00;101598.94;5203595;28;20396;-76
2023/09/09 01:36:53;;;;;;;75.55;41.85;;;;;;;18.18;100.00;101600.19;5184639;28;20018;-75
2023/09/09 01:39:24;;;;;;;85.35;45.53;;;;;;;18.18;100.00;101592.06;5204004;28;20041;-75
2023/09/09 01:41:54;;;;;;;61.50;39.25;;;;;;;18.15;100.00;101605.19;5198854;28;20394;-75
2023/09/09 01:44:25;;;;;;;65.95;39.13;;;;;;;18.12;100.00;101592.81;5200438;28;20034;-75
2023/09/09 01:46:55;;;;;;;61.17;38.22;;;;;;;18.07;100.00;101592.56;5184973;28;20028;-76
2023/09/09 01:49:26;;;;;;;59.08;37.88;;;;;;;18.06;100.00;101593.63;5199291;28;20030;-75
2023/09/09 01:51:57;;;;;;;69.82;36.45;;;;;;;18.03;100.00;101588.59;5206112;28;20371;-75
2023/09/09 01:54:27;;;;;;;55.35;34.88;;;;;;;18.03;100.00;101592.16;5201027;28;20044;-75
2023/09/09 01:56:58;;;;;;;55.28;36.35;;;;;;;18.04;100.00;101593.81;5203064;28;20047;-75
2023/09/09 01:59:28;;;;;;;55.13;35.50;;;;;;;18.02;100.00;101600.47;5188539;28;20108;-75
2023/09/09 02:01:59;;;;;;;52.70;31.83;;;;;;;18.00;100.00;101597.13;5205658;28;20040;-75
2023/09/09 02:04:32;;;;;;;52.30;31.73;;;;;;;17.96;100.00;101595.84;5206062;28;20022;-75
2023/09/09 02:07:03;;;;;;;52.20;32.05;;;;;;;17.95;100.00;101594.16;5199146;28;20032;-75
2023/09/09 02:09:34;;;;;;;53.22;30.80;;;;;;;17.94;100.00;101592.50;5199196;28;20060;-75
2023/09/09 02:12:05;;;;;;;53.08;31.35;;;;;;;17.92;100.00;101595.38;5200689;28;20538;-75
2023/09/09 02:14:36;;;;;;;47.30;29.95;;;;;;;17.89;100.00;101590.38;5201596;28;20029;-75
2023/09/09 02:17:07;;;;;;;51.13;28.63;;;;;;;17.85;100.00;101592.63;5204913;28;20079;-75
2023/09/09 02:19:38;;;;;;;53.13;32.05;;;;;;;17.81;100.00;101583.19;5204073;28;20029;-75
2023/09/09 02:22:16;;;;;;;47.92;31.48;;;;;;;17.81;100.00;101585.06;5199843;28;20498;-75
2023/09/09 02:24:54;;;;;;;47.70;30.10;;;;;;;17.79;100.00;101590.69;5203522;28;20029;-75
2023/09/09 02:27:26;;;;;;;46.45;29.23;;;;;;;17.76;100.00;101585.66;5186985;28;20068;-75
2023/09/09 02:29:57;;;;;;;46.88;29.50;;;;;;;17.77;100.00;101581.06;5202750;28;20029;-75
2023/09/09 02:32:28;;;;;;;41.60;24.52;;;;;;;17.77;100.00;101586.47;5204375;28;20060;-75
2023/09/09 02:34:59;;;;;;;41.42;27.27;;;;;;;17.73;100.00;101583.34;5199919;28;20040;-75
2023/09/09 02:37:30;;;;;;;40.95;26.80;;;;;;;17.75;100.00;101575.84;5201615;28;20037;-75
2023/09/09 02:40:01;;;;;;;41.95;27.45;;;;;;;17.72;100.00;101581.66;5199500;28;20479;-75
2023/09/09 02:42:31;;;;;;;47.42;30.42;;;;;;;17.71;100.00;101574.50;5201826;28;20053;-75
2023/09/09 02:45:02;;;;;;;38.90;25.52;;;;;;;17.68;100.00;101577.63;5201471;28;20116;-75
2023/09/09 02:47:33;;;;;;;41.63;28.40;;;;;;;17.72;100.00;101578.94;5200463;28;20029;-75
2023/09/09 02:50:04;;;;;;;40.47;28.00;;;;;;;17.72;100.00;101578.94;5200566;28;20064;-75
2023/09/09 02:52:35;;;;;;;38.92;27.05;;;;;;;17.69;100.00;101578.47;5201652;28;20049;-75
2023/09/09 02:55:06;;;;;;;43.97;28.20;;;;;;;17.64;100.00;101575.50;5201725;28;20084;-75
2023/09/09 02:57:36;;;;;;;43.67;29.05;;;;;;;17.62;100.00;101578.41;5201330;28;20510;-75
2023/09/09 03:00:07;;;;;;;66.68;37.78;;;;;;;17.59;100.00;101576.09;5197097;28;20067;-75
2023/09/09 03:02:38;;;;;;;53.97;34.33;;;;;;;17.57;100.00;101575.41;5198454;28;20108;-75
2023/09/09 03:05:09;;;;;;;43.70;27.60;;;;;;;17.53;100.00;101568.72;5202062;28;20033;-75
2023/09/09 03:07:40;;;;;;;47.92;28.40;;;;;;;17.46;100.00;101570.53;5202130;28;20441;-75
2023/09/09 03:10:10;;;;;;;44.22;28.08;;;;;;;17.42;100.00;101577.38;5195797;28;20026;-75
2023/09/09 03:12:41;;;;;;;52.17;32.38;;;;;;;17.41;100.00;101576.53;5199420;28;20025;-75
2023/09/09 03:15:11;;;;;;;47.70;30.10;;;;;;;17.37;100.00;101574.41;5197575;28;20024;-75
2023/09/09 03:17:42;;;;;;;69.65;33.25;;;;;;;17.34;100.00;101579.19;5204903;28;20044;-75
2023/09/09 03:20:13;;;;;;;68.80;39.75;;;;;;;17.30;100.00;101580.59;5201561;28;20022;-75
2023/09/09 03:22:43;;;;;;;58.30;34.95;;;;;;;17.24;100.00;101581.38;5206989;28;20048;-75
2023/09/09 03:25:14;;;;;;;40.17;26.45;;;;;;;17.20;100.00;101582.78;5203593;28;20026;-75
2023/09/09 03:27:44;;;;;;;38.38;22.42;;;;;;;17.17;100.00;101580.47;5207002;28;20410;-75
2023/09/09 03:30:15;;;;;;;33.05;20.55;;;;;;;17.13;100.00;101584.59;5204455;28;20021;-75
2023/09/09 03:32:46;;;;;;;36.40;23.30;;;;;;;17.10;100.00;101587.69;5187365;28;20061;-75
2023/09/09 03:35:17;;;;;;;53.20;34.15;;;;;;;17.07;100.00;101583.50;5205966;28;20020;-75
2023/09/09 03:37:47;;;;;;;65.25;36.30;;;;;;;17.04;100.00;101580.31;5188613;28;20129;-74
2023/09/09 03:40:18;;;;;;;51.75;30.60;;;;;;;17.01;100.00;101581.53;5201770;28;20022;-75
2023/09/09 03:42:48;;;;;;;49.10;29.27;;;;;;;16.99;100.00;101585.47;5188397;28;20047;-75
2023/09/09 03:45:19;;;;;;;31.73;22.55;;;;;;;16.98;100.00;101583.78;5186085;28;20361;-75
2023/09/09 03:47:49;;;;;;;38.50;24.08;;;;;;;16.96;100.00;101583.13;5185290;28;20029;-75
2023/09/09 03:50:20;;;;;;;37.58;26.52;;;;;;;16.95;100.00;101585.00;5201313;28;20017;-75
2023/09/09 03:52:50;;;;;;;38.45;22.08;;;;;;;16.94;100.00;101583.31;5204430;28;20029;-75
2023/09/09 03:55:21;;;;;;;87.82;26.15;;;;;;;16.90;100.00;101578.47;5202541;28;20075;-75
2023/09/09 03:57:52;;;;;;;116.50;29.48;;;;;;;16.87;100.00;101585.13;5205814;28;20083;-75
2023/09/09 04:00:22;;;;;;;47.60;26.67;;;;;;;16.85;100.00;101587.16;5189523;28;20022;-74
2023/09/09 04:02:53;;;;;;;52.65;30.75;;;;;;;16.85;100.00;101580.91;5191338;28;20043;-75
2023/09/09 04:05:24;;;;;;;51.67;30.27;;;;;;;16.83;100.00;101579.25;5208862;28;20625;-75
2023/09/09 04:07:58;;;;;;;44.13;26.55;;;;;;;16.86;100.00;101583.44;5204215;28;20116;-75
2023/09/09 04:10:29;;;;;;;40.63;25.48;;;;;;;16.88;100.00;101585.97;5206354;28;20108;-75
2023/09/09 04:12:59;;;;;;;24.42;18.55;;;;;;;16.87;100.00;101585.13;5207314;28;20045;-75
2023/09/09 04:15:30;;;;;;;39.72;17.77;;;;;;;16.85;100.00;101583.63;5207145;28;20049;-75
2023/09/09 04:18:00;;;;;;;79.90;19.88;;;;;;;16.79;100.00;101588.78;5203420;28;20498;-75
2023/09/09 04:20:31;;;;;;;44.40;21.75;;;;;;;16.74;100.00;101590.38;5203714;28;20060;-75
2023/09/09 04:23:01;;;;;;;77.72;22.80;;;;;;;16.71;100.00;101588.00;5185624;28;20029;-75
2023/09/09 04:25:32;;;;;;;34.53;22.63;;;;;;;16.69;100.00;101596.31;5202651;28;20052;-75
2023/09/09 04:28:03;;;;;;;33.53;22.70;;;;;;;16.68;100.00;101589.22;5204709;28;20025;-75
2023/09/09 04:30:34;;;;;;;40.25;27.27;;;;;;;16.67;100.00;101592.97;5183461;28;20045;-75
2023/09/09 04:33:07;;;;;;;46.75;29.48;;;;;;;16.67;100.00;101592.97;5185724;28;20029;-75
2023/09/09 04:35:40;;;;;;;49.08;30.33;;;;;;;16.68;100.00;101591.94;5205343;28;20348;-75
2023/09/09 04:38:14;;;;;;;53.97;30.45;;;;;;;16.65;100.00;101596.88;5205185;28;20029;-75
2023/09/09 04:40:45;;;;;;;49.53;29.30;;;;;;;16.64;100.00;101593.34;5203816;28;20025;-75
2023/09/09 04:43:15;;;;;;;38.25;24.85;;;;;;;16.66;100.00;101593.97;5201747;28;20032;-75
2023/09/09 04:45:46;;;;;;;39.90;25.80;;;;;;;16.68;100.00;101596.50;5205369;28;20032;-75
2023/09/09 04:48:16;;;;;;;39.30;23.77;;;;;;;16.69;100.00;101593.59;5205030;28;20048;-75
2023/09/09 04:50:47;;;;;;;43.60;26.70;;;;;;;16.71;100.00;101601.53;5203369;28;20053;-75
2023/09/09 04:53:17;;;;;;;37.60;25.15;;;;;;;16.72;100.00;101597.84;5197437;28;20182;-75
2023/09/09 04:55:48;;;;;;;42.20;25.40;;;;;;;16.70;100.00;101594.44;5186339;28;20450;-75
2023/09/09 04:58:18;;;;;;;47.58;27.58;;;;;;;16.70;100.00;101594.44;5199743;28;20029;-75
2023/09/09 05:00:49;;;;;;;44.25;27.55;;;;;;;16.70;100.00;101587.16;5202739;28;20029;-75
2023/09/09 05:03:19;;;;;;;46.15;28.23;;;;;;;16.64;100.00;101593.34;5186690;28;20031;-75
2023/09/09 05:05:50;;;;;;;48.40;27.90;;;;;;;16.64;100.00;101589.78;5203593;28;20108;-75
2023/09/09 05:08:21;;;;;;;52.90;30.88;;;;;;;16.63;100.00;101594.38;5202467;28;20024;-75
2023/09/09 05:10:51;;;;;;;54.45;33.33;;;;;;;16.65;100.00;101594.16;5201280;28;20037;-75
2023/09/09 05:13:22;;;;;;;48.55;30.30;;;;;;;16.63;100.00;101597.09;5198386;28;20029;-75
2023/09/09 05:15:53;;;;;;;40.85;27.38;;;;;;;16.63;100.00;101596.25;5199922;28;20026;-75
2023/09/09 05:18:24;;;;;;;45.67;28.17;;;;;;;16.61;100.00;101601.81;5201777;28;20080;-75
2023/09/09 05:20:55;;;;;;;57.05;33.38;;;;;;;16.58;100.00;101603.06;5202196;28;20021;-75
2023/09/09 05:23:25;;;;;;;50.15;30.65;;;;;;;16.63;100.00;101599.78;5183297;28;20030;-75
2023/09/09 05:25:56;;;;;;;51.85;31.23;;;;;;;16.67;100.00;101609.22;5178218;28;20018;-75
2023/09/09 05:28:26;;;;;;;52.20;28.92;;;;;;;16.73;100.00;101610.38;5178582;28;20427;-75
2023/09/09 05:30:57;;;;;;;46.50;28.75;;;;;;;16.78;100.00;101611.47;5181073;28;20018;-75
2023/09/09 05:33:27;;;;;;;47.85;28.73;;;;;;;16.82;100.00;101612.78;5197922;28;20026;-75
2023/09/09 05:35:58;;;;;;;48.80;31.77;;;;;;;16.85;100.00;101614.28;5182005;28;20033;-75
2023/09/09 05:38:29;;;;;;;59.60;35.42;;;;;;;16.91;100.00;101621.63;5202053;28;20041;-75
2023/09/09 05:41:00;;;;;;;55.22;33.08;;;;;;;16.95;100.00;101622.09;5200497;28;20065;-75
2023/09/09 05:43:30;;;;;;;79.38;36.67;;;;;;;16.97;100.00;101615.47;5186561;28;20045;-75
2023/09/09 05:46:01;;;;;;;59.28;32.53;;;;;;;17.04;100.00;101621.81;5180228;28;20107;-75
2023/09/09 05:48:31;;;;;;;133.93;32.13;;;;;;;17.04;100.00;101621.81;5201466;28;20682;-75
2023/09/09 05:51:02;;;;;;;49.08;29.77;;;;;;;17.09;100.00;101615.81;5201095;28;20040;-75
2023/09/09 05:53:33;;;;;;;39.42;27.25;;;;;;;17.17;100.00;101615.72;5184008;28;20584;-75
2023/09/09 05:56:04;;;;;;;38.80;25.42;;;;;;;17.25;100.00;101623.72;5184818;28;20025;-75
2023/09/09 05:58:35;;;;;;;43.53;25.15;;;;;;;17.34;100.00;101622.56;5201410;28;20418;-75
2023/09/09 06:01:05;;;;;;;45.08;29.23;;;;;;;17.39;100.00;101621.16;5184892;28;20096;-75
2023/09/09 06:03:36;;;;;;;44.50;29.08;;;;;;;17.51;100.00;101630.47;5170837;28;20035;-75
2023/09/09 06:06:07;;;;;;;44.83;27.20;;;;;;;17.69;100.00;101628.16;5205498;28;20043;-75
2023/09/09 06:08:37;;;;;;;44.10;25.02;;;;;;;17.97;100.00;101630.09;5202963;28;20034;-75
2023/09/09 06:11:08;;;;;;;41.05;24.10;;;;;;;18.24;100.00;101636.59;5199700;28;20024;-75
2023/09/09 06:13:39;;;;;;;36.17;21.13;;;;;;;18.49;100.00;101634.25;5200579;28;20096;-75
2023/09/09 06:16:09;;;;;;;42.63;23.38;;;;;;;18.76;100.00;101636.09;5203873;28;20037;-75
2023/09/09 06:18:40;;;;;;;40.80;24.42;;;;;;;19.05;100.00;101635.00;5184772;28;20037;-75
2023/09/09 06:21:10;;;;;;;32.47;19.63;;;;;;;19.38;100.00;101637.84;5198788;28;20053;-75
2023/09/09 06:23:41;;;;;;;32.22;20.60;;;;;;;19.71;100.00;101645.25;5199843;28;20091;-75
2023/09/09 06:26:11;;;;;;;29.15;20.17;;;;;;;20.00;100.00;101651.34;5185701;28;20048;-75
2023/09/09 06:28:42;;;;;;;45.08;27.25;;;;;;;20.34;100.00;101647.56;5201771;28;20029;-75
2023/09/09 06:31:13;;;;;;;47.05;28.52;;;;;;;20.63;100.00;101655.31;5202970;28;20028;-75
2023/09/09 06:33:43;;;;;;;50.17;26.98;;;;;;;20.96;100.00;101648.91;5185534;28;20497;-75
2023/09/09 06:36:14;;;;;;;51.67;29.92;;;;;;;21.28;100.00;101654.44;5185412;28;20044;-76
2023/09/09 06:38:44;;;;;;;56.33;32.45;;;;;;;21.53;100.00;101651.81;5203151;28;20033;-75
2023/09/09 06:41:15;;;;;;;59.33;33.55;;;;;;;21.83;100.00;101658.31;5199834;28;20013;-76
2023/09/09 06:43:46;;;;;;;67.25;40.10;;;;;;;22.10;100.00;101660.88;5202213;28;20083;-75
2023/09/09 06:46:18;;;;;;;85.78;48.60;;;;;;;22.33;100.00;101655.63;5181119;28;20391;-76
2023/09/09 06:48:48;;;;;;;88.82;49.95;;;;;;;22.64;100.00;101656.56;5185274;28;20033;-75
2023/09/09 06:51:19;;;;;;;81.93;48.17;;;;;;;22.89;100.00;101660.13;5182902;28;20029;-76
2023/09/09 06:53:49;;;;;;;88.18;49.88;;;;;;;23.16;100.00;101657.06;5185968;28;20037;-75
2023/09/09 06:56:20;;;;;;;85.55;48.83;;;;;;;23.33;100.00;101660.81;5186987;28;20005;-76
2023/09/09 06:58:50;;;;;;;80.13;47.22;;;;;;;23.60;100.00;101660.47;5202004;28;20501;-76
2023/09/09 07:01:21;;;;;;;89.78;50.65;;;;;;;23.74;100.00;101659.22;5200699;28;20033;-76
2023/09/09 07:03:51;;;;;;;88.38;51.22;;;;;;;23.92;100.00;101659.16;5202034;28;20478;-76
2023/09/09 07:06:22;;;;;;;84.90;50.55;;;;;;;24.11;100.00;101662.66;5199559;28;20041;-77
2023/09/09 07:08:52;;;;;;;90.65;52.28;;;;;;;24.35;100.00;101651.66;5200195;28;20562;-76
2023/09/09 07:11:25;;;;;;;89.72;52.35;;;;;;;24.53;100.00;101659.81;5182747;28;20526;-76
2023/09/09 07:13:56;;;;;;;96.68;56.88;;;;;;;24.73;100.00;101659.44;5185480;28;20029;-76
2023/09/09 07:16:31;;;;;;;98.93;60.05;;;;;;;24.89;100.00;101658.69;5185010;28;20025;-76
2023/09/09 07:19:01;;;;;;;103.80;60.13;;;;;;;25.12;100.00;101662.50;5201142;28;20072;-76
2023/09/09 07:21:32;;;;;;;111.00;63.33;;;;;;;25.31;100.00;101659.31;5201092;28;20057;-76
2023/09/09 07:24:02;;;;;;;118.75;69.45;;;;;;;25.56;100.00;101664.47;5200559;28;20107;-76
2023/09/09 07:26:33;;;;;;;114.35;65.15;;;;;;;25.82;100.00;101662.22;5199357;28;20026;-76
2023/09/09 07:29:04;;;;;;;111.20;63.13;;;;;;;26.04;100.00;101665.88;5183800;28;20091;-76
2023/09/09 07:31:35;;;;;;;113.43;66.88;;;;;;;26.24;100.00;101662.63;5201626;28;20025;-76
2023/09/09 07:34:06;;;;;;;117.85;69.75;;;;;;;26.48;100.00;101666.06;5199231;28;20064;-76
2023/09/09 07:36:36;;;;;;;122.38;72.90;;;;;;;26.60;100.00;101668.69;5180459;28;20025;-76
2023/09/09 07:39:07;;;;;;;122.20;71.80;;;;;;;26.83;100.00;101667.63;5174238;28;20503;-76
2023/09/09 07:41:38;;;;;;;116.82;71.65;;;;;;;27.03;100.00;101662.41;5200735;28;20064;-76
2023/09/09 07:44:09;;;;;;;118.68;71.75;;;;;;;27.19;100.00;101665.38;5183095;28;20561;-76
2023/09/09 07:46:40;;;;;;;121.10;74.85;;;;;;;27.44;100.00;101668.41;5200419;28;20151;-76
2023/09/09 07:49:11;;;;;;;122.88;75.28;;;;;;;27.71;100.00;101662.06;5163373;28;20026;-76
2023/09/09 07:51:43;;;;;;;123.28;72.55;;;;;;;27.91;100.00;101658.69;5196091;28;20025;-76
2023/09/09 07:54:14;;;;;;;122.53;74.47;;;;;;;27.79;100.00;101664.38;5182337;28;20029;-76
2023/09/09 07:56:46;;;;;;;127.05;77.30;;;;;;;27.72;100.00;101661.00;5184354;28;20098;-76
2023/09/09 07:59:16;;;;;;;125.43;78.53;;;;;;;27.94;100.00;101663.69;5176820;28;20124;-76
2023/09/09 08:01:48;;;;;;;122.32;74.93;;;;;;;27.94;100.00;101661.75;5199187;28;20572;-76
2023/09/09 08:04:18;;;;;;;114.40;71.93;;;;;;;28.26;100.00;101663.63;5201519;28;20056;-76
2023/09/09 08:06:52;;;;;;;120.72;74.57;;;;;;;28.46;100.00;101672.09;5182595;28;20029;-76
2023/09/09 08:09:23;;;;;;;110.30;74.28;;;;;;;28.62;100.00;101673.88;5201223;28;20048;-76
2023/09/09 08:11:54;;;;;;;113.78;74.78;;;;;;;28.73;100.00;101673.94;5181244;28;20029;-76
2023/09/09 08:14:25;;;;;;;114.85;73.40;;;;;;;28.86;100.00;101676.19;5185633;28;20435;-76
2023/09/09 08:16:56;;;;;;;113.80;68.88;;;;;;;29.01;100.00;101676.28;5169439;28;20030;-76
2023/09/09 08:19:26;;;;;;;105.32;68.78;;;;;;;29.16;100.00;101673.56;5201166;28;20029;-76
2023/09/09 08:21:57;;;;;;;91.93;59.40;;;;;;;29.32;100.00;101671.72;5202332;28;20079;-76
2023/09/09 08:24:27;;;;;;;102.22;64.28;;;;;;;29.30;100.00;101673.91;5202820;28;20034;-76
2023/09/09 08:26:58;;;;;;;89.30;58.65;;;;;;;29.54;100.00;101678.97;5187351;28;20116;-76
2023/09/09 08:29:28;;;;;;;89.05;59.10;;;;;;;29.41;100.00;101675.59;5201559;28;20060;-76
2023/09/09 08:31:59;;;;;;;88.75;61.20;;;;;;;29.48;100.00;101677.28;5202229;28;20036;-76
2023/09/09 08:34:30;;;;;;;84.53;56.13;;;;;;;29.47;100.00;101686.66;5200755;28;20476;-76
2023/09/09 08:37:01;;;;;;;81.32;53.88;;;;;;;29.57;100.00;101687.56;5183600;28;20431;-76
2023/09/09 08:39:31;;;;;;;86.90;56.30;;;;;;;29.73;100.00;101676.53;5200351;28;20045;-76
2023/09/09 08:42:19;;;;;;;75.35;50.35;;;;;;;29.93;100.00;101676.53;5200304;28;20495;-75
2023/09/09 08:45:01;;;;;;;75.28;52.17;;;;;;;30.30;100.00;101675.44;5185769;28;20033;-76
2023/09/09 08:47:36;;;;;;;73.30;49.63;;;;;;;30.28;100.00;101681.25;5181279;28;20029;-76
2023/09/09 08:50:08;;;;;;;71.68;46.97;;;;;;;30.31;100.00;101674.31;5201325;28;20112;-76
2023/09/09 08:52:41;;;;;;;55.25;38.65;;;;;;;30.72;100.00;101677.03;5202854;28;20030;-76
2023/09/09 08:55:11;;;;;;;54.13;38.50;;;;;;;30.83;100.00;101678.69;5200963;28;20053;-76
2023/09/09 08:57:43;;;;;;;61.03;40.70;;;;;;;31.03;100.00;101684.16;5176666;28;20619;-76
2023/09/09 09:00:14;;;;;;;51.40;37.28;;;;;;;31.02;100.00;101687.19;5201582;28;20059;-76
2023/09/09 09:02:48;;;;;;;49.72;34.65;;;;;;;31.21;100.00;101691.81;5202557;28;20025;-76
2023/09/09 09:05:20;;;;;;;49.83;33.80;;;;;;;31.26;100.00;101687.34;5201929;28;20021;-76
2023/09/09 09:07:51;;;;;;;52.92;36.58;;;;;;;31.52;100.00;101691.66;5202342;28;20032;-76
2023/09/09 09:10:22;;;;;;;48.50;32.60;;;;;;;31.45;100.00;101689.22;5178672;28;20399;-76
2023/09/09 09:12:53;;;;;;;48.38;35.58;;;;;;;31.39;100.00;101686.78;5200822;28;20021;-75
2023/09/09 09:15:24;;;;;;;44.45;30.88;;;;;;;31.29;100.00;101686.81;5183529;28;20029;-76
2023/09/09 09:17:55;;;;;;;43.33;31.15;;;;;;;31.64;100.00;101683.00;5201149;28;20029;-76
2023/09/09 09:20:28;;;;;;;48.80;31.33;;;;;;;31.82;100.00;101687.06;5165540;28;20029;-76
2023/09/09 09:23:00;;;;;;;39.30;27.17;;;;;;;31.96;100.00;101686.09;5197782;28;20037;-77
2023/09/09 09:25:37;;;;;;;36.35;26.98;;;;;;;31.94;100.00;101693.91;5201823;28;20037;-76
2023/09/09 09:28:08;;;;;;;35.53;23.92;;;;;;;32.00;100.00;101693.88;5185430;28;20032;-77
2023/09/09 09:30:39;;;;;;;35.42;21.38;;;;;;;32.15;100.00;101689.00;5202180;28;20029;-78
2023/09/09 09:33:09;;;;;;;24.98;17.75;;;;;;;32.28;100.00;101681.09;5184799;28;20075;-77
2023/09/09 09:35:41;;;;;;;23.17;18.75;;;;;;;32.38;100.00;101681.03;5184604;28;20017;-76
2023/09/09 09:38:14;;;;;;;21.10;16.52;;;;;;;32.52;100.00;101692.28;5200883;28;20026;-77
2023/09/09 09:40:45;;;;;;;25.85;18.30;;;;;;;32.56;100.00;101694.19;5201828;28;20450;-78
2023/09/09 09:43:18;;;;;;;23.55;17.27;;;;;;;32.57;100.00;101686.69;5199924;28;20080;-78
2023/09/09 09:45:50;;;;;;;26.27;17.38;;;;;;;32.55;100.00;101691.72;5203110;28;20025;-77
2023/09/09 09:48:26;;;;;;;25.40;16.80;;;;;;;32.42;100.00;101682.94;5202472;28;20036;-77
2023/09/09 09:50:57;;;;;;;23.70;15.80;;;;;;;32.61;100.00;101685.81;5202488;28;20475;-77
2023/09/09 09:53:28;;;;;;;28.67;19.17;;;;;;;32.50;100.00;101687.03;5202843;28;20040;-77
2023/09/09 09:55:59;;;;;;;24.05;18.33;;;;;;;32.39;100.00;101685.50;5198287;28;20479;-78
2023/09/09 09:58:32;;;;;;;28.20;19.08;;;;;;;32.35;100.00;101674.09;5202007;28;20075;-78
2023/09/09 10:01:05;;;;;;;24.23;17.65;;;;;;;32.45;100.00;101684.31;5171479;28;20022;-78
2023/09/09 10:03:45;;;;;;;26.88;17.20;;;;;;;32.51;100.00;101679.53;5185610;28;20049;-77
2023/09/09 10:06:26;;;;;;;20.80;14.50;;;;;;;32.40;100.00;101676.88;5203800;28;20020;-77
2023/09/09 10:09:08;;;;;;;24.77;15.52;;;;;;;32.33;100.00;101673.59;5203423;28;20060;-77
2023/09/09 10:11:49;;;;;;;19.75;14.63;;;;;;;32.28;100.00;101665.28;5202987;28;20470;-77
2023/09/09 10:14:24;;;;;;;23.73;14.32;;;;;;;32.20;100.00;101672.31;5203293;28;20032;-76
2023/09/09 10:16:56;;;;;;;19.13;13.02;;;;;;;31.90;100.00;101672.56;5204756;28;20021;-76
2023/09/09 10:19:27;;;;;;;18.63;12.73;;;;;;;31.80;100.00;101675.41;5181056;28;20030;-76
2023/09/09 10:21:58;;;;;;;17.00;12.45;;;;;;;31.73;100.00;101675.75;5203839;28;20025;-76
2023/09/09 10:24:30;;;;;;;16.63;9.77;;;;;;;31.65;100.00;101677.16;5203828;28;20037;-76
2023/09/09 10:27:03;;;;;;;18.90;12.07;;;;;;;31.78;100.00;101678.47;5187620;28;20064;-76
2023/09/09 10:29:37;;;;;;;14.52;8.73;;;;;;;31.75;100.00;101673.50;5202339;28;20666;-76
2023/09/09 10:32:08;;;;;;;12.95;8.55;;;;;;;31.63;100.00;101665.53;5204596;28;20056;-76
2023/09/09 10:34:41;;;;;;;18.20;9.25;;;;;;;31.36;100.00;101665.16;5203067;28;20091;-76
2023/09/09 10:37:17;;;;;;;13.57;9.23;;;;;;;31.43;100.00;101671.22;5186826;28;20132;-76
2023/09/09 10:39:49;;;;;;;13.43;8.90;;;;;;;31.43;100.00;101669.28;5201632;28;20108;-76
2023/09/09 10:42:20;;;;;;;13.25;8.20;;;;;;;31.46;100.00;101665.09;5202832;28;20017;-76
2023/09/09 10:44:53;;;;;;;13.77;9.80;;;;;;;31.18;100.00;101670.22;5202990;28;20391;-76
2023/09/09 10:47:24;;;;;;;9.60;7.90;;;;;;;31.04;100.00;101671.94;5202082;28;20053;-76
2023/09/09 10:50:05;;;;;;;15.40;7.40;;;;;;;31.19;100.00;101668.28;5178309;28;20061;-76
2023/09/09 10:52:35;;;;;;;16.95;8.02;;;;;;;31.11;100.00;101668.84;5200571;28;20029;-76
2023/09/09 10:55:12;;;;;;;10.02;7.47;;;;;;;31.21;100.00;101666.84;5183251;28;20444;-76
2023/09/09 10:57:42;;;;;;;16.45;8.57;;;;;;;31.27;100.00;101661.31;5193988;28;20017;-76
2023/09/09 11:00:39;;;;;;;9.43;6.20;;;;;;;31.40;100.00;101655.16;5197475;28;20032;-76
2023/09/09 11:03:14;;;;;;;10.70;7.13;;;;;;;31.49;100.00;101658.97;5198726;28;20017;-76
2023/09/09 11:05:59;;;;;;;10.65;8.32;;;;;;;31.49;100.00;101656.22;5179857;28;20033;-76
2023/09/09 11:08:35;;;;;;;14.00;6.78;;;;;;;31.51;100.00;101658.69;5200398;28;22298;-76
2023/09/09 11:11:09;;;;;;;10.48;6.95;;;;;;;31.58;100.00;101662.81;5183900;28;20410;-76
2023/09/09 11:13:43;;;;;;;12.02;7.20;;;;;;;31.64;100.00;101652.50;5199749;28;20048;-75
2023/09/09 11:16:26;;;;;;;13.63;6.85;;;;;;;31.87;100.00;101653.72;5199550;28;20384;-76
2023/09/09 11:18:58;;;;;;;11.80;7.55;;;;;;;31.96;100.00;101658.38;5200320;28;20029;-76
2023/09/09 11:21:32;;;;;;;10.02;5.30;;;;;;;32.16;100.00;101651.81;5181600;28;20558;-76